Time;durP1;ratioP1;P1;durP2;ratioP2;P2;SDS_P1;SDS_P2;PMS_P1;PMS_P2;Temp;Humidity;BMP_temperature;BMP_pressure;BME280_temperature;BME280_humidity;BME280_pressure;Samples;Min_cycle;Max_cycle;Signal;HPM_P1;HPM_P2
2023/06/05 00:01:04;;;;;;;4.90;2.13;;;17.90;92.00;;;;;;5006163;28;20212;-74
2023/06/05 00:03:29;;;;;;;4.93;2.63;;;17.90;92.10;;;;;;5006964;28;20279;-74
2023/06/05 00:05:55;;;;;;;2.97;1.98;;;17.90;92.20;;;;;;5005528;28;20196;-75
2023/06/05 00:08:21;;;;;;;5.47;2.38;;;17.90;92.20;;;;;;5002521;28;20209;-74
2023/06/05 00:10:47;;;;;;;3.22;1.90;;;17.80;92.20;;;;;;5009538;28;20208;-75
2023/06/05 00:13:13;;;;;;;2.90;1.92;;;17.70;92.20;;;;;;5005896;28;20678;-73
2023/06/05 00:15:39;;;;;;;3.35;2.22;;;17.60;92.40;;;;;;5002285;28;20209;-73
2023/06/05 00:18:05;;;;;;;3.80;2.00;;;17.60;92.60;;;;;;5004719;28;20169;-73
2023/06/05 00:20:31;;;;;;;3.47;2.47;;;17.50;92.80;;;;;;5005657;28;20180;-72
2023/06/05 00:22:56;;;;;;;2.53;2.10;;;17.50;93.00;;;;;;5005974;28;20667;-72
2023/06/05 00:25:22;;;;;;;2.67;1.77;;;17.60;93.20;;;;;;5007908;28;20255;-73
2023/06/05 00:27:48;;;;;;;4.13;1.75;;;17.60;93.20;;;;;;5009343;28;20216;-73
2023/06/05 00:30:14;;;;;;;2.20;1.70;;;17.50;93.30;;;;;;5008161;28;20229;-73
2023/06/05 00:32:39;;;;;;;2.33;1.90;;;17.50;93.30;;;;;;5002504;28;20173;-73
2023/06/05 00:35:07;;;;;;;3.90;1.77;;;17.40;93.60;;;;;;5005058;28;20205;-73
2023/06/05 00:37:33;;;;;;;2.95;1.67;;;17.40;93.70;;;;;;5003071;28;20547;-73
2023/06/05 00:39:59;;;;;;;3.03;1.80;;;17.30;93.90;;;;;;5007054;28;20278;-77
2023/06/05 00:42:26;;;;;;;6.45;1.90;;;17.20;94.20;;;;;;5004843;28;20197;-73
2023/06/05 00:44:52;;;;;;;3.20;1.80;;;17.10;94.70;;;;;;5009036;28;20200;-73
2023/06/05 00:47:18;;;;;;;4.22;1.73;;;17.10;95.00;;;;;;5004013;28;20209;-72
2023/06/05 00:49:44;;;;;;;2.05;1.55;;;17.10;95.20;;;;;;5008439;28;20251;-73
2023/06/05 00:52:11;;;;;;;2.75;1.70;;;17.10;95.20;;;;;;5005818;28;20291;-74
2023/06/05 00:54:36;;;;;;;2.90;1.92;;;17.00;95.50;;;;;;5007056;28;20567;-73
2023/06/05 00:57:03;;;;;;;4.15;1.50;;;17.00;95.80;;;;;;5009097;28;20263;-73
2023/06/05 00:59:31;;;;;;;3.83;1.50;;;16.80;96.10;;;;;;5010009;28;20252;-73
2023/06/05 01:01:58;;;;;;;3.28;1.65;;;16.80;96.60;;;;;;5009438;28;20282;-74
2023/06/05 01:04:23;;;;;;;3.88;1.63;;;16.60;97.00;;;;;;5004712;28;20212;-77
2023/06/05 01:06:51;;;;;;;4.55;1.70;;;16.60;97.50;;;;;;5006293;28;20209;-75
2023/06/05 01:09:18;;;;;;;3.35;1.90;;;16.60;97.70;;;;;;5004379;28;20241;-74
2023/06/05 01:12:00;;;;;;;2.13;1.48;;;16.50;98.00;;;;;;5004780;28;20834;-72
2023/06/05 01:14:30;;;;;;;2.35;1.30;;;16.40;98.50;;;;;;5008962;28;20217;-73
2023/06/05 01:17:00;;;;;;;2.20;1.50;;;16.40;98.80;;;;;;5012694;28;20282;-73
2023/06/05 01:19:28;;;;;;;2.50;1.45;;;16.40;99.10;;;;;;5007086;28;20209;-74
2023/06/05 01:21:58;;;;;;;3.45;1.58;;;16.40;99.40;;;;;;5009185;28;20205;-73
2023/06/05 01:24:25;;;;;;;2.00;1.55;;;16.50;99.70;;;;;;5006610;28;20236;-73
2023/06/05 01:27:09;;;;;;;1.63;1.30;;;16.40;99.80;;;;;;5012353;28;20203;-73
2023/06/05 01:30:06;;;;;;;2.30;1.10;;;16.40;99.90;;;;;;5011595;28;20212;-74
2023/06/05 01:32:39;;;;;;;3.00;1.10;;;16.30;99.90;;;;;;5010251;28;20656;-73
2023/06/05 01:35:07;;;;;;;4.28;1.45;;;16.30;99.90;;;;;;5003408;28;20205;-73
2023/06/05 01:37:40;;;;;;;2.45;1.50;;;16.30;99.90;;;;;;5011604;28;20267;-73
2023/06/05 01:40:10;;;;;;;4.75;1.63;;;16.30;99.90;;;;;;5009137;28;20213;-73
2023/06/05 01:42:38;;;;;;;2.38;1.40;;;16.30;99.90;;;;;;5007899;28;20272;-74
2023/06/05 01:45:06;;;;;;;1.25;1.05;;;16.30;99.90;;;;;;5011974;28;20224;-77
2023/06/05 01:47:32;;;;;;;2.42;1.40;;;16.30;99.90;;;;;;5011165;28;20192;-77
2023/06/05 01:49:58;;;;;;;2.30;1.48;;;16.40;99.90;;;;;;5012591;28;20208;-77
2023/06/05 01:52:23;;;;;;;3.25;1.08;;;16.30;99.90;;;;;;5010594;28;20208;-73
2023/06/05 01:54:49;;;;;;;3.58;1.38;;;16.30;99.90;;;;;;5009345;28;20205;-76
2023/06/05 01:57:15;;;;;;;3.83;1.48;;;16.30;99.90;;;;;;5015396;28;20660;-74
2023/06/05 01:59:43;;;;;;;3.03;1.23;;;16.40;99.90;;;;;;5010703;28;20166;-74
2023/06/05 02:02:09;;;;;;;1.50;1.30;;;16.30;99.90;;;;;;5008612;28;20584;-78
2023/06/05 02:04:34;;;;;;;3.58;1.45;;;16.40;99.90;;;;;;5009313;28;20206;-74
2023/06/05 02:07:03;;;;;;;2.50;1.55;;;16.40;99.90;;;;;;5012587;28;20208;-74
2023/06/05 02:09:32;;;;;;;2.92;1.17;;;16.30;99.90;;;;;;5003891;28;20201;-73
2023/06/05 02:12:03;;;;;;;2.47;1.40;;;16.40;99.90;;;;;;5012283;28;20172;-74
2023/06/05 02:14:35;;;;;;;2.33;1.35;;;16.40;99.90;;;;;;5008713;28;20193;-73
2023/06/05 02:17:06;;;;;;;2.22;1.30;;;16.40;99.90;;;;;;5011343;28;20673;-74
2023/06/05 02:19:35;;;;;;;1.63;1.17;;;16.40;99.90;;;;;;5009984;28;20893;-73
2023/06/05 02:22:00;;;;;;;2.80;1.38;;;16.40;99.90;;;;;;5009838;28;20296;-74
2023/06/05 02:24:26;;;;;;;2.03;1.27;;;16.50;99.90;;;;;;5006000;28;20343;-78
2023/06/05 02:26:52;;;;;;;3.33;1.30;;;16.30;99.90;;;;;;5006026;28;20691;-74
2023/06/05 02:29:18;;;;;;;2.80;1.40;;;16.40;99.90;;;;;;5010572;28;20209;-73
2023/06/05 02:31:44;;;;;;;2.00;1.38;;;16.40;99.90;;;;;;5008172;28;20206;-74
2023/06/05 02:34:10;;;;;;;3.55;1.48;;;16.40;99.90;;;;;;5007413;28;20201;-74
2023/06/05 02:36:36;;;;;;;3.00;1.40;;;16.40;99.90;;;;;;5002648;28;20213;-74
2023/06/05 02:39:04;;;;;;;3.50;1.38;;;16.30;99.90;;;;;;5007670;28;20169;-75
2023/06/05 02:41:35;;;;;;;3.13;1.45;;;16.20;99.90;;;;;;5000824;28;20197;-74
2023/06/05 02:44:00;;;;;;;3.67;1.60;;;16.20;99.90;;;;;;4999719;28;20227;-74
2023/06/05 02:46:26;;;;;;;3.25;1.63;;;16.10;99.90;;;;;;5006183;28;20300;-74
2023/06/05 02:48:51;;;;;;;2.90;1.40;;;16.10;99.90;;;;;;5010200;28;20201;-74
2023/06/05 02:51:17;;;;;;;3.70;1.83;;;16.10;99.90;;;;;;5007682;28;20209;-73
2023/06/05 02:53:43;;;;;;;2.97;1.55;;;16.10;99.90;;;;;;5007144;28;20634;-73
2023/06/05 02:56:08;;;;;;;2.05;1.38;;;16.00;99.90;;;;;;5002250;28;20696;-74
2023/06/05 02:58:34;;;;;;;3.47;1.55;;;16.00;99.90;;;;;;5006460;28;20201;-74
2023/06/05 03:01:01;;;;;;;2.08;1.30;;;16.00;99.90;;;;;;5004255;28;20698;-73
2023/06/05 03:03:31;;;;;;;3.90;1.40;;;16.00;99.90;;;;;;5003087;28;20271;-75
2023/06/05 03:06:04;;;;;;;4.00;1.73;;;16.10;99.90;;;;;;5002957;28;20239;-75
2023/06/05 03:08:38;;;;;;;6.82;1.80;;;16.10;99.90;;;;;;5008129;28;20690;-73
2023/06/05 03:11:05;;;;;;;5.15;1.80;;;16.10;99.90;;;;;;5010206;28;20726;-75
2023/06/05 03:13:32;;;;;;;2.92;1.92;;;16.10;99.90;;;;;;5003566;28;20222;-74
2023/06/05 03:16:00;;;;;;;2.40;1.48;;;16.20;99.90;;;;;;5004667;28;20613;-74
2023/06/05 03:18:30;;;;;;;3.33;1.70;;;16.00;99.90;;;;;;5005016;28;20208;-73
2023/06/05 03:20:56;;;;;;;3.53;1.33;;;16.10;99.90;;;;;;5007681;28;20188;-73
2023/06/05 03:23:23;;;;;;;6.53;1.58;;;16.10;99.90;;;;;;5003183;28;20177;-72
2023/06/05 03:25:49;;;;;;;2.60;1.42;;;16.40;99.90;;;;;;5001724;28;20205;-74
2023/06/05 03:28:15;;;;;;;3.38;1.58;;;17.10;99.90;;;;;;5007507;28;20235;-74
2023/06/05 03:30:41;;;;;;;5.25;2.03;;;17.90;99.90;;;;;;5000252;28;20676;-74
2023/06/05 03:33:07;;;;;;;2.58;1.88;;;18.20;99.90;;;;;;5002498;28;20537;-74
2023/06/05 03:35:33;;;;;;;1.83;1.40;;;18.30;99.90;;;;;;5005907;28;20191;-74
2023/06/05 03:37:59;;;;;;;2.50;1.52;;;18.60;99.90;;;;;;5002328;28;20198;-76
2023/06/05 03:40:24;;;;;;;4.22;2.00;;;18.70;99.90;;;;;;5001648;28;20292;-74
2023/06/05 03:42:50;;;;;;;3.38;1.73;;;19.10;99.90;;;;;;5002973;28;20360;-76
2023/06/05 03:45:16;;;;;;;7.45;3.47;;;19.60;99.50;;;;;;5027717;23;20661;-71
2023/06/05 03:47:43;;;;;;;5.93;3.72;;;19.90;98.50;;;;;;5033094;28;20208;-71
2023/06/05 03:50:10;;;;;;;7.28;3.05;;;20.60;97.30;;;;;;5040893;28;20203;-71
2023/06/05 03:52:39;;;;;;;5.28;2.60;;;21.00;96.20;;;;;;5033781;28;20203;-71
2023/06/05 03:55:07;;;;;;;16.45;8.52;;;21.50;95.00;;;;;;5036623;28;20710;-71
2023/06/05 03:57:33;;;;;;;6.80;2.80;;;22.00;94.10;;;;;;5024662;28;20738;-71
2023/06/05 03:59:59;;;;;;;3.38;1.90;;;22.20;92.90;;;;;;5026428;28;20255;-74
2023/06/05 04:02:25;;;;;;;7.70;3.70;;;22.60;92.00;;;;;;5020489;28;20267;-71
2023/06/05 04:04:51;;;;;;;4.78;2.72;;;22.90;91.30;;;;;;5024717;28;20205;-71
2023/06/05 04:07:17;;;;;;;5.57;1.92;;;23.60;90.50;;;;;;5026930;28;20222;-71
2023/06/05 04:09:43;;;;;;;2.42;1.70;;;24.40;88.40;;;;;;5023333;28;20208;-71
2023/06/05 04:12:13;;;;;;;8.82;2.03;;;24.60;85.70;;;;;;5028146;28;20582;-71
2023/06/05 04:14:39;;;;;;;4.53;2.03;;;25.00;84.60;;;;;;5023143;28;20188;-71
2023/06/05 04:17:05;;;;;;;6.82;2.58;;;25.90;83.20;;;;;;5026286;28;20200;-70
2023/06/05 04:19:31;;;;;;;3.60;2.40;;;26.00;81.20;;;;;;5019673;28;20311;-73
2023/06/05 04:21:56;;;;;;;3.90;2.35;;;26.50;79.40;;;;;;5025910;28;20200;-71
2023/06/05 04:24:24;;;;;;;2.50;1.90;;;27.00;77.70;;;;;;5026466;28;20574;-70
2023/06/05 04:26:51;;;;;;;4.78;1.80;;;27.20;76.70;;;;;;5026674;28;20274;-69
2023/06/05 04:29:18;;;;;;;3.13;2.17;;;27.80;75.10;;;;;;5026561;28;20767;-69
2023/06/05 04:31:45;;;;;;;3.97;2.03;;;28.10;74.40;;;;;;5024183;28;20644;-71
2023/06/05 04:34:12;;;;;;;5.78;2.00;;;27.60;73.50;;;;;;5024939;28;20211;-69
2023/06/05 04:36:38;;;;;;;3.72;1.95;;;27.70;72.40;;;;;;5028161;28;20213;-70
2023/06/05 04:39:04;;;;;;;1.90;1.65;;;27.50;71.90;;;;;;5024190;28;20172;-69
2023/06/05 04:41:32;;;;;;;5.82;2.40;;;27.50;72.70;;;;;;5019586;28;20173;-69
2023/06/05 04:44:00;;;;;;;3.92;1.98;;;27.10;71.70;;;;;;5018486;28;20196;-70
2023/06/05 04:46:26;;;;;;;4.43;2.17;;;27.80;72.00;;;;;;5018823;28;20227;-71
2023/06/05 04:48:55;;;;;;;1.90;1.50;;;27.60;70.00;;;;;;5019919;28;20279;-70
2023/06/05 04:51:22;;;;;;;2.22;2.00;;;27.00;69.40;;;;;;5024949;28;20235;-70
2023/06/05 04:53:52;;;;;;;5.10;1.80;;;27.20;70.90;;;;;;5029609;28;20172;-70
2023/06/05 04:56:18;;;;;;;2.47;1.77;;;27.30;70.70;;;;;;5028545;28;20207;-70
2023/06/05 04:58:45;;;;;;;3.40;1.48;;;27.20;70.00;;;;;;5028279;28;20279;-71
2023/06/05 05:01:11;;;;;;;1.92;1.70;;;27.20;69.40;;;;;;5031428;28;20203;-70
2023/06/05 05:03:36;;;;;;;4.43;1.60;;;27.90;70.00;;;;;;5025291;28;20671;-72
2023/06/05 05:06:02;;;;;;;2.80;1.98;;;28.10;69.00;;;;;;5025567;28;20223;-71
2023/06/05 05:08:28;;;;;;;1.83;1.30;;;27.50;68.30;;;;;;5028346;28;20196;-70
2023/06/05 05:10:54;;;;;;;4.03;1.85;;;27.20;69.40;;;;;;5023763;28;20209;-70
2023/06/05 05:13:19;;;;;;;3.78;1.63;;;27.00;69.90;;;;;;5024802;28;20204;-71
2023/06/05 05:15:46;;;;;;;3.67;2.08;;;27.30;69.00;;;;;;5022204;28;20320;-71
2023/06/05 05:18:12;;;;;;;4.72;1.58;;;27.40;69.00;;;;;;5025473;28;20175;-71
2023/06/05 05:20:38;;;;;;;2.53;1.80;;;28.50;68.80;;;;;;5022424;28;20172;-71
2023/06/05 05:23:04;;;;;;;3.78;2.20;;;29.20;67.00;;;;;;5024145;28;20196;-70
2023/06/05 05:25:30;;;;;;;5.72;1.83;;;29.80;64.90;;;;;;5020783;28;20208;-70
2023/06/05 05:27:55;;;;;;;6.00;1.80;;;28.90;65.40;;;;;;5022052;28;20311;-71
2023/06/05 05:30:21;;;;;;;3.38;1.73;;;29.80;65.00;;;;;;5024636;28;20589;-70
2023/06/05 05:32:47;;;;;;;6.70;2.03;;;29.80;64.40;;;;;;5020793;28;20558;-71
2023/06/05 05:35:12;;;;;;;4.22;1.77;;;30.60;63.00;;;;;;5025744;28;20642;-70
2023/06/05 05:37:38;;;;;;;3.67;1.98;;;30.80;63.10;;;;;;5024589;28;20211;-70
2023/06/05 05:40:05;;;;;;;1.98;1.77;;;30.80;62.30;;;;;;5024540;28;20263;-70
2023/06/05 05:42:30;;;;;;;4.28;1.95;;;30.30;62.00;;;;;;5024184;28;20258;-70
2023/06/05 05:44:56;;;;;;;2.53;1.80;;;30.70;62.20;;;;;;5023272;28;20205;-70
2023/06/05 05:47:21;;;;;;;4.53;2.17;;;31.40;61.20;;;;;;5025093;28;20573;-70
2023/06/05 05:49:47;;;;;;;3.38;1.70;;;31.20;60.40;;;;;;5019806;28;20303;-71
2023/06/05 05:52:13;;;;;;;3.83;2.30;;;30.30;60.30;;;;;;5024148;28;20323;-71
2023/06/05 05:54:38;;;;;;;11.30;2.50;;;29.90;62.00;;;;;;5024252;28;20228;-71
2023/06/05 05:57:04;;;;;;;2.83;1.60;;;30.00;60.90;;;;;;5024412;28;20550;-71
2023/06/05 05:59:30;;;;;;;6.65;2.17;;;30.40;60.30;;;;;;5022098;28;20181;-71
2023/06/05 06:01:59;;;;;;;4.22;1.88;;;30.40;61.10;;;;;;5027095;28;20279;-70
2023/06/05 06:04:26;;;;;;;3.92;2.45;;;31.40;59.80;;;;;;5026019;28;20583;-71
2023/06/05 06:06:52;;;;;;;12.50;9.50;;;31.30;59.60;;;;;;5021626;28;20692;-71
2023/06/05 06:09:18;;;;;;;8.70;4.22;;;31.50;59.40;;;;;;5025652;28;20219;-68
2023/06/05 06:11:46;;;;;;;7.72;2.17;;;31.70;59.10;;;;;;5023280;28;20176;-72
2023/06/05 06:14:12;;;;;;;4.78;1.92;;;31.60;59.00;;;;;;5022506;28;20211;-71
2023/06/05 06:16:38;;;;;;;5.78;3.15;;;31.90;58.00;;;;;;5021747;28;20211;-71
2023/06/05 06:19:04;;;;;;;5.80;3.85;;;32.40;57.60;;;;;;5023777;28;20299;-72
2023/06/05 06:21:30;;;;;;;4.50;3.15;;;31.80;57.40;;;;;;5024084;28;20377;-72
2023/06/05 06:23:57;;;;;;;5.68;1.88;;;32.60;57.40;;;;;;5024225;28;20183;-71
2023/06/05 06:26:22;;;;;;;3.20;2.10;;;32.30;57.80;;;;;;5026608;28;20283;-71
2023/06/05 06:28:48;;;;;;;4.88;2.30;;;31.40;58.10;;;;;;5028260;28;20215;-72
2023/06/05 06:31:14;;;;;;;6.03;2.40;;;31.50;57.60;;;;;;5022851;28;20212;-69
2023/06/05 06:33:40;;;;;;;3.88;1.98;;;31.80;58.00;;;;;;5029945;28;20286;-69
2023/06/05 06:36:06;;;;;;;5.53;2.30;;;32.60;56.60;;;;;;5029746;28;20299;-70
2023/06/05 06:38:32;;;;;;;7.30;2.22;;;32.80;55.80;;;;;;5027557;28;20188;-73
2023/06/05 06:40:58;;;;;;;6.68;2.47;;;31.60;55.70;;;;;;5025165;28;20926;-71
2023/06/05 06:43:24;;;;;;;5.63;2.30;;;30.70;56.10;;;;;;5029309;28;20816;-72
2023/06/05 06:45:51;;;;;;;4.55;2.15;;;30.80;57.40;;;;;;5026680;28;20265;-71
2023/06/05 06:48:17;;;;;;;8.63;2.47;;;31.60;57.60;;;;;;5026695;28;20232;-71
2023/06/05 06:50:43;;;;;;;6.55;2.50;;;31.80;56.30;;;;;;5028548;28;20260;-72
2023/06/05 06:53:08;;;;;;;5.00;2.50;;;33.30;56.20;;;;;;5029441;28;20223;-71
2023/06/05 06:55:34;;;;;;;6.72;3.28;;;34.00;55.10;;;;;;5023650;28;20703;-71
2023/06/05 06:58:00;;;;;;;4.90;2.20;;;33.70;54.30;;;;;;5021424;28;20649;-71
2023/06/05 07:00:25;;;;;;;14.55;9.80;;;34.00;53.80;;;;;;5017637;28;20259;-70
2023/06/05 07:02:51;;;;;;;4.28;3.00;;;34.80;53.70;;;;;;5022625;28;20212;-75
2023/06/05 07:05:19;;;;;;;7.82;2.58;;;34.50;53.20;;;;;;5025523;28;20742;-73
2023/06/05 07:07:45;;;;;;;6.85;3.15;;;34.00;53.80;;;;;;5024985;28;20709;-72
2023/06/05 07:10:11;;;;;;;6.43;2.50;;;33.80;54.10;;;;;;5027090;28;20674;-72
2023/06/05 07:12:37;;;;;;;8.85;2.58;;;34.60;52.80;;;;;;5024653;28;20212;-73
2023/06/05 07:15:03;;;;;;;4.00;2.15;;;33.90;53.00;;;;;;5024199;28;20204;-71
2023/06/05 07:17:30;;;;;;;3.97;2.20;;;32.90;54.00;;;;;;5028049;28;20178;-71
2023/06/05 07:19:56;;;;;;;5.50;2.42;;;33.40;54.30;;;;;;5029145;28;20261;-71
2023/06/05 07:22:24;;;;;;;4.00;2.38;;;33.10;54.50;;;;;;5023618;28;20211;-74
2023/06/05 07:24:50;;;;;;;7.35;2.38;;;34.20;54.60;;;;;;5017564;28;20216;-72
2023/06/05 07:27:16;;;;;;;5.03;2.25;;;34.70;52.40;;;;;;5019796;28;20230;-72
2023/06/05 07:29:42;;;;;;;4.95;2.20;;;34.00;52.30;;;;;;5021517;28;20182;-70
2023/06/05 07:32:08;;;;;;;5.20;2.55;;;35.00;52.90;;;;;;5022680;28;20589;-71
2023/06/05 07:34:36;;;;;;;5.22;2.20;;;34.40;52.00;;;;;;5026028;28;20220;-71
2023/06/05 07:37:02;;;;;;;6.05;2.30;;;34.90;51.80;;;;;;5026132;28;20236;-71
2023/06/05 07:39:28;;;;;;;5.25;2.08;;;33.70;52.40;;;;;;5028133;28;20322;-71
2023/06/05 07:41:54;;;;;;;7.35;2.13;;;33.60;52.60;;;;;;5026474;28;20658;-70
2023/06/05 07:44:21;;;;;;;6.68;2.15;;;33.20;53.10;;;;;;5027199;28;20175;-71
2023/06/05 07:46:48;;;;;;;5.72;1.88;;;33.70;53.00;;;;;;4988275;28;1133145;-70
2023/06/05 07:49:15;;;;;;;6.32;1.98;;;34.40;52.40;;;;;;5027972;28;20227;-71
2023/06/05 07:51:42;;;;;;;5.22;1.90;;;34.00;52.50;;;;;;5027164;28;20226;-70
2023/06/05 07:54:12;;;;;;;2.38;2.10;;;34.40;52.30;;;;;;5024374;28;20164;-73
2023/06/05 07:56:38;;;;;;;5.82;2.03;;;34.50;51.60;;;;;;5024560;28;20280;-70
2023/06/05 07:59:05;;;;;;;5.68;2.42;;;34.00;52.10;;;;;;5023074;28;20216;-76
2023/06/05 08:01:36;;;;;;;3.50;1.98;;;34.50;51.10;;;;;;5024904;28;20612;-72
2023/06/05 08:04:05;;;;;;;5.78;1.73;;;34.30;50.20;;;;;;5027032;28;20674;-70
2023/06/05 08:06:31;;;;;;;6.65;2.42;;;34.80;50.50;;;;;;5026056;28;20230;-71
2023/06/05 08:09:01;;;;;;;4.47;1.85;;;34.70;50.40;;;;;;5026736;28;20188;-72
2023/06/05 08:11:28;;;;;;;4.32;2.13;;;35.20;50.60;;;;;;5028692;28;20630;-71
2023/06/05 08:13:57;;;;;;;4.97;1.90;;;34.80;49.20;;;;;;5026788;28;20211;-71
2023/06/05 08:16:22;;;;;;;4.18;1.90;;;33.70;49.90;;;;;;5025283;28;20422;-71
2023/06/05 08:18:48;;;;;;;3.35;1.88;;;33.80;50.80;;;;;;5023582;28;20196;-71
2023/06/05 08:21:14;;;;;;;2.53;1.75;;;33.80;50.70;;;;;;5027890;28;20258;-71
2023/06/05 08:23:39;;;;;;;6.90;3.38;;;34.20;50.10;;;;;;5028600;28;20720;-73
2023/06/05 08:26:10;;;;;;;8.23;4.57;;;35.30;49.60;;;;;;5026155;28;20212;-71
2023/06/05 08:28:38;;;;;;;4.70;1.90;;;35.60;48.70;;;;;;5023536;28;20211;-72
2023/06/05 08:31:05;;;;;;;8.43;5.43;;;35.40;48.50;;;;;;5026004;28;20229;-71
2023/06/05 08:33:32;;;;;;;3.72;1.80;;;35.60;49.40;;;;;;5027453;28;20223;-70
2023/06/05 08:35:58;;;;;;;5.78;2.38;;;36.00;48.50;;;;;;5026960;28;20196;-71
2023/06/05 08:38:24;;;;;;;4.28;1.92;;;35.10;48.80;;;;;;5029728;28;20282;-70
2023/06/05 08:40:59;;;;;;;8.88;7.97;;;34.00;49.50;;;;;;5025646;28;20227;-71
2023/06/05 08:43:25;;;;;;;3.10;2.17;;;34.70;50.20;;;;;;5025648;28;20336;-71
2023/06/05 08:45:59;;;;;;;4.53;1.85;;;34.80;49.10;;;;;;5023813;28;20277;-72
2023/06/05 08:48:25;;;;;;;4.95;2.05;;;33.70;49.00;;;;;;5025482;28;20293;-77
2023/06/05 08:50:51;;;;;;;3.45;2.13;;;32.80;50.20;;;;;;5027670;28;20187;-72
2023/06/05 08:53:19;;;;;;;3.42;2.47;;;32.30;50.60;;;;;;5025489;28;20208;-71
2023/06/05 08:55:46;;;;;;;3.42;1.88;;;32.30;51.40;;;;;;5027147;28;20663;-72
2023/06/05 08:58:13;;;;;;;5.25;2.50;;;32.40;50.90;;;;;;5026623;28;20212;-72
2023/06/05 09:00:40;;;;;;;2.10;1.77;;;33.00;50.90;;;;;;5028113;28;20208;-72
2023/06/05 09:03:06;;;;;;;2.92;1.77;;;33.40;50.70;;;;;;5024298;28;20658;-72
2023/06/05 09:05:32;;;;;;;3.40;1.80;;;34.00;50.60;;;;;;5027815;28;20208;-71
2023/06/05 09:07:58;;;;;;;2.95;1.50;;;33.10;49.10;;;;;;5027107;28;20650;-72
2023/06/05 09:10:28;;;;;;;4.18;1.48;;;32.00;50.20;;;;;;5025798;28;20240;-72
2023/06/05 09:12:58;;;;;;;2.78;1.88;;;32.40;51.70;;;;;;5026820;28;20215;-73
2023/06/05 09:15:29;;;;;;;5.85;2.92;;;33.00;50.70;;;;;;5028055;28;20786;-72
2023/06/05 09:18:11;;;;;;;3.03;2.67;;;33.50;51.40;;;;;;5028557;28;20587;-73
2023/06/05 09:20:40;;;;;;;6.32;2.00;;;33.40;50.10;;;;;;5025259;28;20176;-72
2023/06/05 09:23:27;;;;;;;2.75;1.90;;;32.50;50.80;;;;;;5026978;28;20553;-72
2023/06/05 09:25:54;;;;;;;2.60;1.50;;;31.30;51.20;;;;;;5026399;28;20208;-72
2023/06/05 09:28:20;;;;;;;5.10;2.40;;;31.90;52.00;;;;;;5026320;28;20217;-72
2023/06/05 09:30:58;;;;;;;3.63;1.50;;;32.40;51.70;;;;;;5024884;28;20204;-72
2023/06/05 09:33:25;;;;;;;2.90;1.48;;;32.80;51.40;;;;;;5021015;28;20219;-72
2023/06/05 09:36:14;;;;;;;4.78;1.77;;;32.90;51.40;;;;;;5028888;28;20195;-72
2023/06/05 09:38:41;;;;;;;4.72;2.30;;;32.10;51.20;;;;;;5019823;28;20570;-73
2023/06/05 09:41:11;;;;;;;3.70;1.65;;;32.00;51.40;;;;;;5031771;28;20662;-72
2023/06/05 09:43:38;;;;;;;7.03;2.30;;;31.70;51.90;;;;;;5028471;28;20243;-72
2023/06/05 09:46:13;;;;;;;2.70;1.60;;;31.10;52.40;;;;;;5037330;23;21376;-72
2023/06/05 09:48:43;;;;;;;4.05;1.83;;;31.30;53.40;;;;;;5009697;28;20234;-72
2023/06/05 09:51:11;;;;;;;7.43;2.30;;;31.10;53.10;;;;;;5010318;28;20295;-72
2023/06/05 09:53:46;;;;;;;2.78;1.50;;;31.10;53.60;;;;;;5012828;28;20169;-72
2023/06/05 09:56:15;;;;;;;5.50;3.60;;;30.60;52.60;;;;;;5009855;28;20209;-72
2023/06/05 09:58:47;;;;;;;4.90;2.55;;;29.80;53.60;;;;;;5008123;28;20568;-74
2023/06/05 10:01:22;;;;;;;5.20;1.85;;;29.50;53.80;;;;;;5002317;28;20205;-74
2023/06/05 10:03:59;;;;;;;5.85;2.90;;;29.50;55.20;;;;;;5002627;28;20239;-74
2023/06/05 10:06:29;;;;;;;4.15;3.75;;;28.60;54.80;;;;;;5002608;28;20222;-74
2023/06/05 10:08:56;;;;;;;4.78;3.08;;;28.70;55.10;;;;;;5003205;28;20181;-73
2023/06/05 10:11:23;;;;;;;2.85;1.90;;;28.30;55.60;;;;;;5004006;28;20228;-73
2023/06/05 10:13:49;;;;;;;6.63;1.80;;;28.20;55.60;;;;;;5001889;28;20831;-74
2023/06/05 10:16:17;;;;;;;3.50;2.22;;;28.80;56.60;;;;;;5004951;28;20583;-74
2023/06/05 10:18:47;;;;;;;3.55;1.60;;;28.70;55.00;;;;;;5004533;28;20213;-74
2023/06/05 10:21:15;;;;;;;4.03;1.80;;;29.00;55.60;;;;;;5008081;28;20589;-74
2023/06/05 10:23:44;;;;;;;5.63;1.63;;;29.70;55.40;;;;;;5003895;28;20161;-74
2023/06/05 10:26:22;;;;;;;4.00;1.73;;;29.00;54.80;;;;;;5001809;28;20221;-75
2023/06/05 10:29:12;;;;;;;2.45;1.63;;;29.60;55.40;;;;;;5002268;28;20615;-74
2023/06/05 10:31:53;;;;;;;3.45;1.63;;;29.10;55.00;;;;;;5004689;28;20286;-74
2023/06/05 10:34:47;;;;;;;4.45;1.73;;;28.70;54.90;;;;;;5010002;28;20706;-73
2023/06/05 10:37:32;;;;;;;4.82;1.83;;;28.80;55.10;;;;;;5000913;28;20647;-73
2023/06/05 10:39:58;;;;;;;4.80;1.73;;;29.30;55.40;;;;;;4998524;28;20213;-73
2023/06/05 10:42:25;;;;;;;2.22;1.90;;;28.70;55.50;;;;;;5002303;28;20216;-73
2023/06/05 10:44:52;;;;;;;1.92;1.50;;;29.00;55.00;;;;;;5003408;28;20705;-73
2023/06/05 10:47:33;;;;;;;2.90;1.75;;;27.90;55.20;;;;;;5004302;28;20220;-72
2023/06/05 10:50:20;;;;;;;4.28;1.70;;;27.30;56.60;;;;;;5004965;28;20197;-73
2023/06/05 10:52:49;;;;;;;3.00;1.88;;;28.20;57.00;;;;;;5004344;28;20260;-71
2023/06/05 10:55:16;;;;;;;4.15;2.15;;;27.70;55.90;;;;;;5001045;28;20704;-74
2023/06/05 10:58:00;;;;;;;2.90;1.55;;;27.40;56.70;;;;;;5004122;28;20251;-72
2023/06/05 11:00:30;;;;;;;3.80;2.03;;;27.30;56.80;;;;;;5008045;28;20636;-73
2023/06/05 11:02:57;;;;;;;3.53;1.90;;;27.40;56.90;;;;;;5001713;28;20636;-69
2023/06/05 11:05:23;;;;;;;4.88;1.90;;;27.30;57.50;;;;;;5006968;28;20223;-75
2023/06/05 11:08:14;;;;;;;3.50;1.80;;;27.60;57.30;;;;;;5007609;28;20209;-70
2023/06/05 11:11:05;;;;;;;4.47;1.98;;;27.80;56.60;;;;;;5010600;28;20228;-73
2023/06/05 11:13:57;;;;;;;7.28;1.98;;;27.90;57.20;;;;;;5021578;28;20353;-74
2023/06/05 11:16:40;;;;;;;3.25;1.88;;;28.00;57.20;;;;;;5004478;28;20236;-73
2023/06/05 11:19:15;;;;;;;5.97;2.20;;;28.30;57.70;;;;;;5004539;28;20284;-73
2023/06/05 11:22:08;;;;;;;7.13;2.30;;;28.50;57.00;;;;;;5006369;28;20295;-74
2023/06/05 11:24:35;;;;;;;4.53;2.13;;;28.90;57.50;;;;;;5002465;28;20227;-71
2023/06/05 11:27:01;;;;;;;3.78;3.13;;;29.10;56.70;;;;;;5006172;28;20197;-70
2023/06/05 11:29:27;;;;;;;5.20;3.50;;;28.00;57.00;;;;;;5005855;28;20177;-72
2023/06/05 11:31:53;;;;;;;5.03;2.00;;;27.40;58.00;;;;;;5007471;28;20192;-72
2023/06/05 11:34:19;;;;;;;5.38;2.85;;;27.50;57.80;;;;;;5000951;28;20235;-71
2023/06/05 11:36:44;;;;;;;6.20;2.30;;;27.90;57.90;;;;;;5002718;28;20228;-72
2023/06/05 11:39:11;;;;;;;4.60;3.00;;;28.30;57.70;;;;;;5003408;28;20172;-71
2023/06/05 11:41:44;;;;;;;3.53;2.63;;;28.70;56.80;;;;;;5006552;28;20205;-72
2023/06/05 11:44:10;;;;;;;4.63;3.17;;;28.70;56.50;;;;;;5006701;28;20672;-72
2023/06/05 11:46:43;;;;;;;4.05;2.60;;;28.30;56.20;;;;;;5008822;28;20213;-71
2023/06/05 11:49:24;;;;;;;5.13;2.03;;;27.90;56.00;;;;;;5006709;28;20213;-74
2023/06/05 11:51:49;;;;;;;5.72;2.38;;;27.20;56.30;;;;;;5008620;28;20227;-72
2023/06/05 11:54:30;;;;;;;4.20;2.95;;;26.80;57.00;;;;;;5004076;28;20204;-72
2023/06/05 11:56:58;;;;;;;5.60;2.10;;;26.90;56.80;;;;;;5002246;28;20192;-73
2023/06/05 11:59:24;;;;;;;4.28;1.70;;;27.20;57.60;;;;;;5009662;28;20173;-72
2023/06/05 12:01:53;;;;;;;3.33;1.98;;;27.50;57.10;;;;;;5006818;28;20219;-73
2023/06/05 12:04:19;;;;;;;2.92;2.15;;;27.10;56.20;;;;;;5004465;28;20201;-73
2023/06/05 12:06:47;;;;;;;3.75;2.58;;;26.70;56.80;;;;;;5005330;28;20227;-74
2023/06/05 12:09:15;;;;;;;4.28;2.40;;;26.70;57.70;;;;;;5005328;28;20674;-75
2023/06/05 12:11:45;;;;;;;3.47;2.22;;;26.80;57.70;;;;;;5004688;28;20175;-73
2023/06/05 12:14:11;;;;;;;4.45;2.03;;;27.00;57.50;;;;;;5004265;28;20201;-79
2023/06/05 12:16:44;;;;;;;3.55;2.00;;;27.10;58.10;;;;;;5003315;28;20288;-74
2023/06/05 12:19:13;;;;;;;3.15;1.77;;;27.30;57.90;;;;;;5004826;28;20205;-74
2023/06/05 12:21:39;;;;;;;5.00;2.42;;;27.40;57.50;;;;;;5006172;28;20204;-73
2023/06/05 12:24:06;;;;;;;4.05;2.42;;;26.90;56.60;;;;;;5006541;28;20173;-74
2023/06/05 12:27:01;;;;;;;4.47;2.33;;;26.30;57.00;;;;;;5006918;28;20188;-75
2023/06/05 12:29:29;;;;;;;4.88;3.45;;;26.40;57.60;;;;;;5008007;28;20201;-74
2023/06/05 12:31:59;;;;;;;5.82;2.80;;;26.50;57.70;;;;;;5006005;28;20197;-74
2023/06/05 12:34:46;;;;;;;5.18;2.30;;;26.50;57.70;;;;;;5003588;28;20197;-73
2023/06/05 12:37:21;;;;;;;3.70;2.45;;;26.30;57.40;;;;;;5002407;28;20208;-73
2023/06/05 12:39:47;;;;;;;7.50;2.75;;;26.40;58.00;;;;;;5006793;28;20573;-74
2023/06/05 12:42:13;;;;;;;4.20;2.10;;;26.40;58.00;;;;;;5005082;28;20221;-72
2023/06/05 12:44:39;;;;;;;3.38;2.00;;;26.20;58.10;;;;;;5006922;28;20767;-73
2023/06/05 12:47:05;;;;;;;4.88;2.38;;;26.40;58.10;;;;;;5004367;28;20220;-73
2023/06/05 12:49:31;;;;;;;4.72;2.40;;;26.30;57.70;;;;;;5005370;28;20604;-74
2023/06/05 12:51:57;;;;;;;4.80;2.90;;;26.40;57.80;;;;;;5008133;28;20316;-73